sensor_id;sensor_type;location;lat;lon;timestamp;P1;durP1;ratioP1;P2;durP2;ratioP2
15516;SDS011;7860;52.030;5.572;2023-06-24T00:03:37;11.56;;;7.74;;
15516;SDS011;7860;52.030;5.572;2023-06-24T00:03:40;13.96;;;8.16;;
15516;SDS011;7860;52.030;5.572;2023-06-24T00:04:40;13.00;;;8.64;;
15516;SDS011;7860;52.030;5.572;2023-06-24T00:05:40;12.52;;;7.98;;
15516;SDS011;7860;52.030;5.572;2023-06-24T00:06:41;12.09;;;7.98;;
15516;SDS011;7860;52.030;5.572;2023-06-24T00:07:41;12.98;;;8.07;;
15516;SDS011;7860;52.030;5.572;2023-06-24T00:08:41;12.61;;;8.48;;
15516;SDS011;7860;52.030;5.572;2023-06-24T00:09:41;11.63;;;8.31;;
15516;SDS011;7860;52.030;5.572;2023-06-24T00:10:43;11.90;;;8.16;;
15516;SDS011;7860;52.030;5.572;2023-06-24T00:11:41;12.94;;;8.30;;
15516;SDS011;7860;52.030;5.572;2023-06-24T00:12:41;13.17;;;8.24;;
15516;SDS011;7860;52.030;5.572;2023-06-24T00:13:41;13.81;;;8.40;;
15516;SDS011;7860;52.030;5.572;2023-06-24T00:14:41;12.11;;;8.55;;
15516;SDS011;7860;52.030;5.572;2023-06-24T00:15:41;13.36;;;8.48;;
15516;SDS011;7860;52.030;5.572;2023-06-24T00:16:41;14.43;;;8.60;;
15516;SDS011;7860;52.030;5.572;2023-06-24T00:17:41;12.04;;;8.63;;
15516;SDS011;7860;52.030;5.572;2023-06-24T00:18:42;13.24;;;8.61;;
15516;SDS011;7860;52.030;5.572;2023-06-24T00:19:42;13.53;;;8.89;;
15516;SDS011;7860;52.030;5.572;2023-06-24T00:20:42;12.61;;;8.29;;
15516;SDS011;7860;52.030;5.572;2023-06-24T00:21:42;13.66;;;8.31;;
15516;SDS011;7860;52.030;5.572;2023-06-24T00:22:42;14.75;;;8.81;;
15516;SDS011;7860;52.030;5.572;2023-06-24T00:23:42;11.89;;;8.24;;
15516;SDS011;7860;52.030;5.572;2023-06-24T00:24:42;12.55;;;7.97;;
15516;SDS011;7860;52.030;5.572;2023-06-24T00:25:42;14.32;;;8.84;;
15516;SDS011;7860;52.030;5.572;2023-06-24T00:26:42;12.18;;;8.59;;
15516;SDS011;7860;52.030;5.572;2023-06-24T00:27:42;12.87;;;8.21;;
15516;SDS011;7860;52.030;5.572;2023-06-24T00:28:42;12.45;;;7.91;;
15516;SDS011;7860;52.030;5.572;2023-06-24T00:29:42;13.39;;;8.57;;
15516;SDS011;7860;52.030;5.572;2023-06-24T00:30:43;12.22;;;8.21;;
15516;SDS011;7860;52.030;5.572;2023-06-24T00:31:43;12.51;;;8.41;;
15516;SDS011;7860;52.030;5.572;2023-06-24T00:32:43;14.85;;;8.59;;
15516;SDS011;7860;52.030;5.572;2023-06-24T00:33:43;13.86;;;8.67;;
15516;SDS011;7860;52.030;5.572;2023-06-24T00:34:43;12.11;;;8.23;;
15516;SDS011;7860;52.030;5.572;2023-06-24T00:35:43;12.58;;;8.35;;
15516;SDS011;7860;52.030;5.572;2023-06-24T00:36:43;12.49;;;8.45;;
15516;SDS011;7860;52.030;5.572;2023-06-24T00:37:43;13.02;;;8.03;;
15516;SDS011;7860;52.030;5.572;2023-06-24T00:38:43;12.15;;;8.14;;
15516;SDS011;7860;52.030;5.572;2023-06-24T00:39:43;13.85;;;8.43;;
15516;SDS011;7860;52.030;5.572;2023-06-24T00:40:43;11.79;;;8.19;;
15516;SDS011;7860;52.030;5.572;2023-06-24T00:41:44;12.02;;;8.51;;
15516;SDS011;7860;52.030;5.572;2023-06-24T00:42:44;12.24;;;8.50;;
15516;SDS011;7860;52.030;5.572;2023-06-24T00:43:44;11.83;;;8.13;;
15516;SDS011;7860;52.030;5.572;2023-06-24T00:44:44;11.38;;;8.08;;
15516;SDS011;7860;52.030;5.572;2023-06-24T00:45:44;13.95;;;8.22;;
15516;SDS011;7860;52.030;5.572;2023-06-24T00:46:44;11.86;;;7.71;;
15516;SDS011;7860;52.030;5.572;2023-06-24T00:47:44;14.48;;;7.92;;
15516;SDS011;7860;52.030;5.572;2023-06-24T00:48:44;12.89;;;7.93;;
15516;SDS011;7860;52.030;5.572;2023-06-24T00:49:44;12.95;;;7.54;;
15516;SDS011;7860;52.030;5.572;2023-06-24T00:50:44;12.48;;;7.87;;
15516;SDS011;7860;52.030;5.572;2023-06-24T00:51:44;13.60;;;8.25;;
15516;SDS011;7860;52.030;5.572;2023-06-24T00:52:44;12.33;;;8.20;;
15516;SDS011;7860;52.030;5.572;2023-06-24T00:53:45;14.63;;;7.68;;
15516;SDS011;7860;52.030;5.572;2023-06-24T00:54:45;12.98;;;7.53;;
15516;SDS011;7860;52.030;5.572;2023-06-24T00:55:45;14.45;;;8.03;;
15516;SDS011;7860;52.030;5.572;2023-06-24T00:56:45;16.01;;;8.53;;
15516;SDS011;7860;52.030;5.572;2023-06-24T00:57:45;12.67;;;8.15;;
15516;SDS011;7860;52.030;5.572;2023-06-24T00:58:45;12.43;;;8.15;;
15516;SDS011;7860;52.030;5.572;2023-06-24T00:59:45;15.54;;;8.22;;
15516;SDS011;7860;52.030;5.572;2023-06-24T01:00:45;12.36;;;7.52;;
15516;SDS011;7860;52.030;5.572;2023-06-24T01:01:45;14.41;;;7.96;;
15516;SDS011;7860;52.030;5.572;2023-06-24T01:02:46;12.26;;;7.60;;
15516;SDS011;7860;52.030;5.572;2023-06-24T01:03:46;11.24;;;7.30;;
15516;SDS011;7860;52.030;5.572;2023-06-24T01:04:46;12.65;;;7.73;;
15516;SDS011;7860;52.030;5.572;2023-06-24T01:05:46;14.23;;;7.75;;
15516;SDS011;7860;52.030;5.572;2023-06-24T01:06:46;13.29;;;7.47;;
15516;SDS011;7860;52.030;5.572;2023-06-24T01:07:46;13.90;;;7.64;;
15516;SDS011;7860;52.030;5.572;2023-06-24T01:08:46;11.93;;;7.41;;
15516;SDS011;7860;52.030;5.572;2023-06-24T01:09:46;11.90;;;7.35;;
15516;SDS011;7860;52.030;5.572;2023-06-24T01:10:46;11.23;;;6.89;;
15516;SDS011;7860;52.030;5.572;2023-06-24T01:11:46;10.53;;;6.77;;
15516;SDS011;7860;52.030;5.572;2023-06-24T01:12:46;12.12;;;7.70;;
15516;SDS011;7860;52.030;5.572;2023-06-24T01:13:46;11.74;;;7.08;;
15516;SDS011;7860;52.030;5.572;2023-06-24T01:14:46;13.09;;;7.80;;
15516;SDS011;7860;52.030;5.572;2023-06-24T01:15:46;11.83;;;7.44;;
15516;SDS011;7860;52.030;5.572;2023-06-24T01:16:49;13.01;;;7.52;;
15516;SDS011;7860;52.030;5.572;2023-06-24T01:17:48;12.55;;;7.55;;
15516;SDS011;7860;52.030;5.572;2023-06-24T01:18:48;12.76;;;7.55;;
15516;SDS011;7860;52.030;5.572;2023-06-24T01:19:51;13.12;;;7.59;;
15516;SDS011;7860;52.030;5.572;2023-06-24T01:20:47;13.22;;;7.72;;
15516;SDS011;7860;52.030;5.572;2023-06-24T01:21:48;10.83;;;7.33;;
15516;SDS011;7860;52.030;5.572;2023-06-24T01:22:52;11.80;;;7.43;;
15516;SDS011;7860;52.030;5.572;2023-06-24T01:23:52;12.34;;;7.00;;
15516;SDS011;7860;52.030;5.572;2023-06-24T01:24:51;11.99;;;7.33;;
15516;SDS011;7860;52.030;5.572;2023-06-24T01:25:54;11.62;;;7.46;;
15516;SDS011;7860;52.030;5.572;2023-06-24T01:26:52;12.20;;;7.29;;
15516;SDS011;7860;52.030;5.572;2023-06-24T01:27:52;13.25;;;7.57;;
15516;SDS011;7860;52.030;5.572;2023-06-24T01:28:53;12.11;;;7.39;;
15516;SDS011;7860;52.030;5.572;2023-06-24T01:29:52;13.80;;;8.27;;
15516;SDS011;7860;52.030;5.572;2023-06-24T01:30:52;12.57;;;7.37;;
15516;SDS011;7860;52.030;5.572;2023-06-24T01:31:48;11.50;;;7.50;;
15516;SDS011;7860;52.030;5.572;2023-06-24T01:32:48;11.13;;;7.20;;
15516;SDS011;7860;52.030;5.572;2023-06-24T01:33:49;11.90;;;7.64;;
15516;SDS011;7860;52.030;5.572;2023-06-24T01:34:48;12.83;;;7.60;;
15516;SDS011;7860;52.030;5.572;2023-06-24T01:35:48;13.02;;;7.58;;
15516;SDS011;7860;52.030;5.572;2023-06-24T01:36:50;12.72;;;7.78;;
15516;SDS011;7860;52.030;5.572;2023-06-24T01:37:49;13.54;;;8.54;;
15516;SDS011;7860;52.030;5.572;2023-06-24T01:38:51;12.16;;;7.73;;
15516;SDS011;7860;52.030;5.572;2023-06-24T01:39:50;13.35;;;7.91;;
15516;SDS011;7860;52.030;5.572;2023-06-24T01:40:49;12.11;;;7.41;;
15516;SDS011;7860;52.030;5.572;2023-06-24T01:41:51;12.21;;;8.29;;
15516;SDS011;7860;52.030;5.572;2023-06-24T01:42:49;13.75;;;8.18;;
15516;SDS011;7860;52.030;5.572;2023-06-24T01:43:49;11.23;;;7.73;;
15516;SDS011;7860;52.030;5.572;2023-06-24T01:44:49;12.08;;;8.12;;
15516;SDS011;7860;52.030;5.572;2023-06-24T01:45:50;12.42;;;7.73;;
15516;SDS011;7860;52.030;5.572;2023-06-24T01:46:49;12.66;;;8.20;;
15516;SDS011;7860;52.030;5.572;2023-06-24T01:47:50;12.48;;;7.98;;
15516;SDS011;7860;52.030;5.572;2023-06-24T01:48:49;13.15;;;7.63;;
15516;SDS011;7860;52.030;5.572;2023-06-24T01:49:49;13.76;;;8.59;;
15516;SDS011;7860;52.030;5.572;2023-06-24T01:50:54;12.45;;;7.95;;
15516;SDS011;7860;52.030;5.572;2023-06-24T01:51:49;12.50;;;8.11;;
15516;SDS011;7860;52.030;5.572;2023-06-24T01:52:50;11.91;;;7.71;;
15516;SDS011;7860;52.030;5.572;2023-06-24T01:53:51;12.76;;;7.68;;
15516;SDS011;7860;52.030;5.572;2023-06-24T01:54:50;12.69;;;8.01;;
15516;SDS011;7860;52.030;5.572;2023-06-24T01:55:50;12.72;;;8.28;;
15516;SDS011;7860;52.030;5.572;2023-06-24T01:56:50;13.93;;;8.42;;
15516;SDS011;7860;52.030;5.572;2023-06-24T01:57:50;12.82;;;8.31;;
15516;SDS011;7860;52.030;5.572;2023-06-24T01:58:50;12.86;;;8.04;;
15516;SDS011;7860;52.030;5.572;2023-06-24T01:59:52;12.27;;;8.30;;
15516;SDS011;7860;52.030;5.572;2023-06-24T02:00:50;14.48;;;8.70;;
15516;SDS011;7860;52.030;5.572;2023-06-24T02:01:50;13.14;;;7.87;;
15516;SDS011;7860;52.030;5.572;2023-06-24T02:02:50;12.95;;;8.08;;
15516;SDS011;7860;52.030;5.572;2023-06-24T02:03:50;11.69;;;8.10;;
15516;SDS011;7860;52.030;5.572;2023-06-24T02:04:50;12.66;;;7.66;;
15516;SDS011;7860;52.030;5.572;2023-06-24T02:05:51;12.67;;;8.09;;
15516;SDS011;7860;52.030;5.572;2023-06-24T02:06:51;12.76;;;7.63;;
15516;SDS011;7860;52.030;5.572;2023-06-24T02:07:51;11.70;;;7.65;;
15516;SDS011;7860;52.030;5.572;2023-06-24T02:08:51;11.03;;;7.68;;
15516;SDS011;7860;52.030;5.572;2023-06-24T02:09:51;11.32;;;7.72;;
15516;SDS011;7860;52.030;5.572;2023-06-24T02:10:51;14.16;;;8.88;;
15516;SDS011;7860;52.030;5.572;2023-06-24T02:11:51;13.16;;;8.76;;
15516;SDS011;7860;52.030;5.572;2023-06-24T02:12:51;13.43;;;8.54;;
15516;SDS011;7860;52.030;5.572;2023-06-24T02:13:51;12.72;;;8.15;;
15516;SDS011;7860;52.030;5.572;2023-06-24T02:14:51;11.80;;;7.71;;
15516;SDS011;7860;52.030;5.572;2023-06-24T02:15:51;13.23;;;8.37;;
15516;SDS011;7860;52.030;5.572;2023-06-24T02:16:51;14.13;;;8.43;;
15516;SDS011;7860;52.030;5.572;2023-06-24T02:17:51;13.89;;;8.52;;
15516;SDS011;7860;52.030;5.572;2023-06-24T02:18:52;12.76;;;8.50;;
15516;SDS011;7860;52.030;5.572;2023-06-24T02:19:52;13.55;;;9.22;;
15516;SDS011;7860;52.030;5.572;2023-06-24T02:20:52;13.66;;;9.03;;
15516;SDS011;7860;52.030;5.572;2023-06-24T02:21:52;14.08;;;9.27;;
15516;SDS011;7860;52.030;5.572;2023-06-24T02:22:52;14.18;;;9.10;;
15516;SDS011;7860;52.030;5.572;2023-06-24T02:23:52;13.13;;;9.02;;
15516;SDS011;7860;52.030;5.572;2023-06-24T02:24:52;15.67;;;8.95;;
15516;SDS011;7860;52.030;5.572;2023-06-24T02:25:52;15.28;;;9.77;;
15516;SDS011;7860;52.030;5.572;2023-06-24T02:26:52;14.86;;;9.18;;
15516;SDS011;7860;52.030;5.572;2023-06-24T02:27:52;16.20;;;8.81;;
15516;SDS011;7860;52.030;5.572;2023-06-24T02:28:53;14.00;;;9.52;;
15516;SDS011;7860;52.030;5.572;2023-06-24T02:29:53;16.87;;;10.47;;
15516;SDS011;7860;52.030;5.572;2023-06-24T02:30:53;16.41;;;10.11;;
15516;SDS011;7860;52.030;5.572;2023-06-24T02:31:53;15.71;;;9.69;;
15516;SDS011;7860;52.030;5.572;2023-06-24T02:32:53;16.73;;;10.69;;
15516;SDS011;7860;52.030;5.572;2023-06-24T02:33:53;15.13;;;10.07;;
15516;SDS011;7860;52.030;5.572;2023-06-24T02:34:53;15.79;;;9.41;;
15516;SDS011;7860;52.030;5.572;2023-06-24T02:35:53;15.46;;;9.25;;
15516;SDS011;7860;52.030;5.572;2023-06-24T02:36:53;15.65;;;9.37;;
15516;SDS011;7860;52.030;5.572;2023-06-24T02:37:53;15.06;;;10.32;;
15516;SDS011;7860;52.030;5.572;2023-06-24T02:38:53;15.54;;;9.64;;
15516;SDS011;7860;52.030;5.572;2023-06-24T02:39:53;13.18;;;9.13;;
15516;SDS011;7860;52.030;5.572;2023-06-24T02:40:53;15.28;;;9.96;;
15516;SDS011;7860;52.030;5.572;2023-06-24T02:41:53;14.84;;;9.84;;
15516;SDS011;7860;52.030;5.572;2023-06-24T02:42:54;13.41;;;8.88;;
15516;SDS011;7860;52.030;5.572;2023-06-24T02:43:54;16.85;;;10.29;;
15516;SDS011;7860;52.030;5.572;2023-06-24T02:44:54;14.26;;;9.56;;
15516;SDS011;7860;52.030;5.572;2023-06-24T02:45:54;17.21;;;10.51;;
15516;SDS011;7860;52.030;5.572;2023-06-24T02:46:54;15.95;;;9.81;;
15516;SDS011;7860;52.030;5.572;2023-06-24T02:47:54;15.80;;;10.24;;
15516;SDS011;7860;52.030;5.572;2023-06-24T02:48:54;16.42;;;9.42;;
15516;SDS011;7860;52.030;5.572;2023-06-24T02:49:54;15.37;;;10.18;;
15516;SDS011;7860;52.030;5.572;2023-06-24T02:50:54;15.55;;;9.78;;
15516;SDS011;7860;52.030;5.572;2023-06-24T02:51:55;16.26;;;9.55;;
15516;SDS011;7860;52.030;5.572;2023-06-24T02:52:55;15.56;;;9.47;;
15516;SDS011;7860;52.030;5.572;2023-06-24T02:53:55;15.14;;;10.72;;
15516;SDS011;7860;52.030;5.572;2023-06-24T02:54:55;14.49;;;9.83;;
15516;SDS011;7860;52.030;5.572;2023-06-24T02:55:55;15.18;;;9.73;;
15516;SDS011;7860;52.030;5.572;2023-06-24T02:56:55;15.69;;;10.21;;
15516;SDS011;7860;52.030;5.572;2023-06-24T02:57:55;15.04;;;9.77;;
15516;SDS011;7860;52.030;5.572;2023-06-24T02:58:55;14.29;;;9.07;;
15516;SDS011;7860;52.030;5.572;2023-06-24T02:59:55;14.93;;;9.88;;
15516;SDS011;7860;52.030;5.572;2023-06-24T03:00:55;13.88;;;9.34;;
15516;SDS011;7860;52.030;5.572;2023-06-24T03:01:55;15.31;;;9.78;;
15516;SDS011;7860;52.030;5.572;2023-06-24T03:02:55;15.23;;;9.58;;
15516;SDS011;7860;52.030;5.572;2023-06-24T03:03:55;15.00;;;10.71;;
15516;SDS011;7860;52.030;5.572;2023-06-24T03:04:55;17.22;;;10.97;;
15516;SDS011;7860;52.030;5.572;2023-06-24T03:05:55;16.25;;;10.87;;
15516;SDS011;7860;52.030;5.572;2023-06-24T03:06:56;15.01;;;9.42;;
15516;SDS011;7860;52.030;5.572;2023-06-24T03:07:56;16.03;;;9.80;;
15516;SDS011;7860;52.030;5.572;2023-06-24T03:08:56;15.62;;;10.46;;
15516;SDS011;7860;52.030;5.572;2023-06-24T03:09:56;16.26;;;10.58;;
15516;SDS011;7860;52.030;5.572;2023-06-24T03:10:56;17.85;;;10.90;;
15516;SDS011;7860;52.030;5.572;2023-06-24T03:11:56;16.72;;;10.19;;
15516;SDS011;7860;52.030;5.572;2023-06-24T03:12:56;14.65;;;10.12;;
15516;SDS011;7860;52.030;5.572;2023-06-24T03:13:56;15.76;;;10.41;;
15516;SDS011;7860;52.030;5.572;2023-06-24T03:14:56;15.18;;;9.42;;
15516;SDS011;7860;52.030;5.572;2023-06-24T03:15:56;16.12;;;9.90;;
15516;SDS011;7860;52.030;5.572;2023-06-24T03:16:56;16.01;;;9.98;;
15516;SDS011;7860;52.030;5.572;2023-06-24T03:17:56;16.28;;;10.27;;
15516;SDS011;7860;52.030;5.572;2023-06-24T03:18:56;15.60;;;9.86;;
15516;SDS011;7860;52.030;5.572;2023-06-24T03:19:56;14.78;;;9.55;;
15516;SDS011;7860;52.030;5.572;2023-06-24T03:20:57;15.69;;;9.85;;
15516;SDS011;7860;52.030;5.572;2023-06-24T03:21:57;14.91;;;9.65;;
15516;SDS011;7860;52.030;5.572;2023-06-24T03:22:57;14.81;;;10.02;;
15516;SDS011;7860;52.030;5.572;2023-06-24T03:23:57;14.89;;;9.93;;
15516;SDS011;7860;52.030;5.572;2023-06-24T03:24:57;14.73;;;9.33;;
15516;SDS011;7860;52.030;5.572;2023-06-24T03:25:57;20.79;;;10.57;;
15516;SDS011;7860;52.030;5.572;2023-06-24T03:26:57;15.02;;;9.87;;
15516;SDS011;7860;52.030;5.572;2023-06-24T03:27:57;14.14;;;9.51;;
15516;SDS011;7860;52.030;5.572;2023-06-24T03:28:57;14.76;;;9.42;;
15516;SDS011;7860;52.030;5.572;2023-06-24T03:29:57;14.24;;;8.85;;
15516;SDS011;7860;52.030;5.572;2023-06-24T03:30:57;13.53;;;9.24;;
15516;SDS011;7860;52.030;5.572;2023-06-24T03:31:57;14.67;;;9.20;;
15516;SDS011;7860;52.030;5.572;2023-06-24T03:32:57;15.24;;;9.50;;
15516;SDS011;7860;52.030;5.572;2023-06-24T03:33:57;14.78;;;9.53;;
15516;SDS011;7860;52.030;5.572;2023-06-24T03:34:57;15.80;;;9.71;;
15516;SDS011;7860;52.030;5.572;2023-06-24T03:35:58;14.02;;;9.88;;
15516;SDS011;7860;52.030;5.572;2023-06-24T03:36:58;16.60;;;9.51;;
15516;SDS011;7860;52.030;5.572;2023-06-24T03:37:58;14.30;;;9.66;;
15516;SDS011;7860;52.030;5.572;2023-06-24T03:38:58;15.10;;;9.42;;
15516;SDS011;7860;52.030;5.572;2023-06-24T03:39:58;16.61;;;10.34;;
15516;SDS011;7860;52.030;5.572;2023-06-24T03:40:58;15.42;;;9.62;;
15516;SDS011;7860;52.030;5.572;2023-06-24T03:41:58;14.30;;;8.98;;
15516;SDS011;7860;52.030;5.572;2023-06-24T03:42:58;15.81;;;8.93;;
15516;SDS011;7860;52.030;5.572;2023-06-24T03:43:58;14.57;;;9.52;;
15516;SDS011;7860;52.030;5.572;2023-06-24T03:44:58;15.33;;;9.49;;
15516;SDS011;7860;52.030;5.572;2023-06-24T03:45:58;14.47;;;9.14;;
15516;SDS011;7860;52.030;5.572;2023-06-24T03:46:58;14.73;;;10.03;;
15516;SDS011;7860;52.030;5.572;2023-06-24T03:47:58;16.35;;;10.94;;
15516;SDS011;7860;52.030;5.572;2023-06-24T03:48:59;15.10;;;9.95;;
15516;SDS011;7860;52.030;5.572;2023-06-24T03:49:59;15.29;;;10.00;;
15516;SDS011;7860;52.030;5.572;2023-06-24T03:50:59;14.35;;;9.48;;
15516;SDS011;7860;52.030;5.572;2023-06-24T03:51:59;13.42;;;9.03;;
15516;SDS011;7860;52.030;5.572;2023-06-24T03:52:59;14.64;;;9.99;;
15516;SDS011;7860;52.030;5.572;2023-06-24T03:53:59;13.14;;;8.71;;
15516;SDS011;7860;52.030;5.572;2023-06-24T03:54:59;15.43;;;9.93;;
15516;SDS011;7860;52.030;5.572;2023-06-24T03:55:59;14.33;;;9.36;;
15516;SDS011;7860;52.030;5.572;2023-06-24T03:56:59;13.38;;;8.75;;
15516;SDS011;7860;52.030;5.572;2023-06-24T03:57:59;14.12;;;9.12;;
15516;SDS011;7860;52.030;5.572;2023-06-24T03:58:59;15.06;;;8.40;;
15516;SDS011;7860;52.030;5.572;2023-06-24T03:59:59;12.83;;;8.07;;
15516;SDS011;7860;52.030;5.572;2023-06-24T04:01:00;14.13;;;9.22;;
15516;SDS011;7860;52.030;5.572;2023-06-24T04:01:59;13.14;;;8.80;;
15516;SDS011;7860;52.030;5.572;2023-06-24T04:02:59;14.60;;;9.36;;
15516;SDS011;7860;52.030;5.572;2023-06-24T04:04:00;15.54;;;9.19;;
15516;SDS011;7860;52.030;5.572;2023-06-24T04:05:00;14.06;;;8.86;;
15516;SDS011;7860;52.030;5.572;2023-06-24T04:06:00;11.92;;;8.71;;
15516;SDS011;7860;52.030;5.572;2023-06-24T04:07:00;13.76;;;9.13;;
15516;SDS011;7860;52.030;5.572;2023-06-24T04:08:00;12.44;;;8.38;;
15516;SDS011;7860;52.030;5.572;2023-06-24T04:09:00;14.31;;;9.04;;
15516;SDS011;7860;52.030;5.572;2023-06-24T04:10:00;13.66;;;8.73;;
15516;SDS011;7860;52.030;5.572;2023-06-24T04:11:00;12.68;;;8.57;;
15516;SDS011;7860;52.030;5.572;2023-06-24T04:12:00;14.11;;;9.13;;
15516;SDS011;7860;52.030;5.572;2023-06-24T04:13:00;13.28;;;8.80;;
15516;SDS011;7860;52.030;5.572;2023-06-24T04:14:00;13.89;;;8.80;;
15516;SDS011;7860;52.030;5.572;2023-06-24T04:15:01;13.44;;;8.41;;
15516;SDS011;7860;52.030;5.572;2023-06-24T04:16:00;15.32;;;9.75;;
15516;SDS011;7860;52.030;5.572;2023-06-24T04:17:00;13.53;;;9.00;;
15516;SDS011;7860;52.030;5.572;2023-06-24T04:18:01;12.85;;;8.54;;
15516;SDS011;7860;52.030;5.572;2023-06-24T04:19:01;13.34;;;8.50;;
15516;SDS011;7860;52.030;5.572;2023-06-24T04:20:01;12.78;;;8.47;;
15516;SDS011;7860;52.030;5.572;2023-06-24T04:21:01;14.34;;;9.16;;
15516;SDS011;7860;52.030;5.572;2023-06-24T04:22:01;15.19;;;9.37;;
15516;SDS011;7860;52.030;5.572;2023-06-24T04:23:01;15.17;;;9.61;;
15516;SDS011;7860;52.030;5.572;2023-06-24T04:24:01;13.86;;;9.20;;
15516;SDS011;7860;52.030;5.572;2023-06-24T04:25:02;14.89;;;9.76;;
15516;SDS011;7860;52.030;5.572;2023-06-24T04:26:01;13.03;;;8.12;;
15516;SDS011;7860;52.030;5.572;2023-06-24T04:27:01;13.40;;;8.50;;
15516;SDS011;7860;52.030;5.572;2023-06-24T04:28:01;15.31;;;9.63;;
15516;SDS011;7860;52.030;5.572;2023-06-24T04:29:02;15.16;;;9.23;;
15516;SDS011;7860;52.030;5.572;2023-06-24T04:30:02;13.42;;;9.30;;
15516;SDS011;7860;52.030;5.572;2023-06-24T04:31:03;12.81;;;8.62;;
15516;SDS011;7860;52.030;5.572;2023-06-24T04:32:02;15.52;;;9.12;;
15516;SDS011;7860;52.030;5.572;2023-06-24T04:33:02;11.72;;;7.97;;
15516;SDS011;7860;52.030;5.572;2023-06-24T04:34:02;13.62;;;8.63;;
15516;SDS011;7860;52.030;5.572;2023-06-24T04:35:02;13.36;;;9.04;;
15516;SDS011;7860;52.030;5.572;2023-06-24T04:36:02;12.90;;;8.77;;
15516;SDS011;7860;52.030;5.572;2023-06-24T04:37:02;13.74;;;8.25;;
15516;SDS011;7860;52.030;5.572;2023-06-24T04:38:03;13.42;;;7.74;;
15516;SDS011;7860;52.030;5.572;2023-06-24T04:39:02;12.03;;;7.90;;
15516;SDS011;7860;52.030;5.572;2023-06-24T04:40:02;12.77;;;8.22;;
15516;SDS011;7860;52.030;5.572;2023-06-24T04:41:03;11.03;;;7.16;;
15516;SDS011;7860;52.030;5.572;2023-06-24T04:42:02;11.23;;;7.40;;
15516;SDS011;7860;52.030;5.572;2023-06-24T04:43:02;14.11;;;8.21;;
15516;SDS011;7860;52.030;5.572;2023-06-24T04:44:03;13.35;;;8.51;;
15516;SDS011;7860;52.030;5.572;2023-06-24T04:45:03;10.97;;;6.90;;
15516;SDS011;7860;52.030;5.572;2023-06-24T04:46:03;10.85;;;7.05;;
15516;SDS011;7860;52.030;5.572;2023-06-24T04:47:03;13.07;;;7.60;;
15516;SDS011;7860;52.030;5.572;2023-06-24T04:48:03;11.86;;;7.45;;
15516;SDS011;7860;52.030;5.572;2023-06-24T04:49:03;12.50;;;7.36;;
15516;SDS011;7860;52.030;5.572;2023-06-24T04:50:03;11.65;;;7.51;;
15516;SDS011;7860;52.030;5.572;2023-06-24T04:51:03;11.89;;;7.11;;
15516;SDS011;7860;52.030;5.572;2023-06-24T04:52:03;11.78;;;6.85;;
15516;SDS011;7860;52.030;5.572;2023-06-24T04:53:03;11.96;;;6.98;;
15516;SDS011;7860;52.030;5.572;2023-06-24T04:54:03;10.98;;;7.25;;
15516;SDS011;7860;52.030;5.572;2023-06-24T04:55:03;11.31;;;7.02;;
15516;SDS011;7860;52.030;5.572;2023-06-24T04:56:03;10.25;;;6.53;;
15516;SDS011;7860;52.030;5.572;2023-06-24T04:57:06;11.92;;;6.76;;
15516;SDS011;7860;52.030;5.572;2023-06-24T04:58:03;10.81;;;6.73;;
15516;SDS011;7860;52.030;5.572;2023-06-24T04:59:03;10.19;;;6.68;;
15516;SDS011;7860;52.030;5.572;2023-06-24T05:00:04;10.80;;;6.93;;
15516;SDS011;7860;52.030;5.572;2023-06-24T05:01:04;11.99;;;7.49;;
15516;SDS011;7860;52.030;5.572;2023-06-24T05:02:04;11.33;;;6.96;;
15516;SDS011;7860;52.030;5.572;2023-06-24T05:03:04;13.44;;;7.37;;
15516;SDS011;7860;52.030;5.572;2023-06-24T05:04:04;12.80;;;6.46;;
15516;SDS011;7860;52.030;5.572;2023-06-24T05:05:04;10.26;;;6.46;;
15516;SDS011;7860;52.030;5.572;2023-06-24T05:06:04;10.81;;;6.51;;
15516;SDS011;7860;52.030;5.572;2023-06-24T05:07:04;10.52;;;6.16;;
15516;SDS011;7860;52.030;5.572;2023-06-24T05:08:04;10.65;;;6.23;;
15516;SDS011;7860;52.030;5.572;2023-06-24T05:09:04;12.22;;;6.22;;
15516;SDS011;7860;52.030;5.572;2023-06-24T05:10:05;10.33;;;6.32;;
15516;SDS011;7860;52.030;5.572;2023-06-24T05:11:04;10.68;;;6.18;;
15516;SDS011;7860;52.030;5.572;2023-06-24T05:12:05;10.86;;;6.12;;
15516;SDS011;7860;52.030;5.572;2023-06-24T05:13:05;10.12;;;6.12;;
15516;SDS011;7860;52.030;5.572;2023-06-24T05:14:05;10.21;;;5.84;;
15516;SDS011;7860;52.030;5.572;2023-06-24T05:15:05;10.77;;;5.97;;
15516;SDS011;7860;52.030;5.572;2023-06-24T05:16:05;10.00;;;5.55;;
15516;SDS011;7860;52.030;5.572;2023-06-24T05:17:05;9.49;;;5.27;;
15516;SDS011;7860;52.030;5.572;2023-06-24T05:18:05;10.42;;;5.62;;
15516;SDS011;7860;52.030;5.572;2023-06-24T05:19:05;10.50;;;5.30;;
15516;SDS011;7860;52.030;5.572;2023-06-24T05:20:05;9.77;;;5.34;;
15516;SDS011;7860;52.030;5.572;2023-06-24T05:21:05;8.78;;;4.57;;
15516;SDS011;7860;52.030;5.572;2023-06-24T05:22:06;9.33;;;5.10;;
15516;SDS011;7860;52.030;5.572;2023-06-24T05:23:05;11.10;;;4.86;;
15516;SDS011;7860;52.030;5.572;2023-06-24T05:24:06;9.44;;;4.78;;
15516;SDS011;7860;52.030;5.572;2023-06-24T05:25:06;9.25;;;4.61;;
15516;SDS011;7860;52.030;5.572;2023-06-24T05:26:06;9.25;;;4.55;;
15516;SDS011;7860;52.030;5.572;2023-06-24T05:27:06;8.38;;;4.52;;
15516;SDS011;7860;52.030;5.572;2023-06-24T05:28:06;10.13;;;4.64;;
15516;SDS011;7860;52.030;5.572;2023-06-24T05:29:06;8.28;;;4.55;;
15516;SDS011;7860;52.030;5.572;2023-06-24T05:30:06;8.76;;;4.37;;
15516;SDS011;7860;52.030;5.572;2023-06-24T05:31:06;8.66;;;4.09;;
15516;SDS011;7860;52.030;5.572;2023-06-24T05:32:06;8.55;;;4.31;;
15516;SDS011;7860;52.030;5.572;2023-06-24T05:33:06;7.53;;;3.76;;
15516;SDS011;7860;52.030;5.572;2023-06-24T05:34:06;9.25;;;4.09;;
15516;SDS011;7860;52.030;5.572;2023-06-24T05:35:07;7.94;;;3.66;;
15516;SDS011;7860;52.030;5.572;2023-06-24T05:36:06;7.07;;;3.55;;
15516;SDS011;7860;52.030;5.572;2023-06-24T05:37:07;6.89;;;3.56;;
15516;SDS011;7860;52.030;5.572;2023-06-24T05:38:07;7.64;;;3.75;;
15516;SDS011;7860;52.030;5.572;2023-06-24T05:39:07;8.63;;;3.80;;
15516;SDS011;7860;52.030;5.572;2023-06-24T05:40:07;6.77;;;3.51;;
15516;SDS011;7860;52.030;5.572;2023-06-24T05:41:07;7.27;;;3.73;;
15516;SDS011;7860;52.030;5.572;2023-06-24T05:42:07;7.57;;;3.55;;
15516;SDS011;7860;52.030;5.572;2023-06-24T05:43:07;7.15;;;3.44;;
15516;SDS011;7860;52.030;5.572;2023-06-24T05:44:07;7.42;;;3.50;;
15516;SDS011;7860;52.030;5.572;2023-06-24T05:45:08;7.01;;;3.43;;
15516;SDS011;7860;52.030;5.572;2023-06-24T05:46:07;8.48;;;3.90;;
15516;SDS011;7860;52.030;5.572;2023-06-24T05:47:07;9.43;;;3.98;;
15516;SDS011;7860;52.030;5.572;2023-06-24T05:48:08;8.53;;;3.84;;
15516;SDS011;7860;52.030;5.572;2023-06-24T05:49:08;7.19;;;3.59;;
15516;SDS011;7860;52.030;5.572;2023-06-24T05:50:08;8.50;;;3.78;;
15516;SDS011;7860;52.030;5.572;2023-06-24T05:51:08;8.59;;;4.04;;
15516;SDS011;7860;52.030;5.572;2023-06-24T05:52:08;8.84;;;4.19;;
15516;SDS011;7860;52.030;5.572;2023-06-24T05:53:08;9.19;;;4.39;;
15516;SDS011;7860;52.030;5.572;2023-06-24T05:54:08;9.67;;;4.11;;
15516;SDS011;7860;52.030;5.572;2023-06-24T05:55:08;8.15;;;4.23;;
15516;SDS011;7860;52.030;5.572;2023-06-24T05:56:08;8.49;;;4.15;;
15516;SDS011;7860;52.030;5.572;2023-06-24T05:57:08;7.84;;;3.60;;
15516;SDS011;7860;52.030;5.572;2023-06-24T05:58:09;7.91;;;4.40;;
15516;SDS011;7860;52.030;5.572;2023-06-24T05:59:09;9.61;;;4.61;;
15516;SDS011;7860;52.030;5.572;2023-06-24T06:00:09;8.49;;;4.49;;
15516;SDS011;7860;52.030;5.572;2023-06-24T06:01:09;8.27;;;4.15;;
15516;SDS011;7860;52.030;5.572;2023-06-24T06:02:09;9.67;;;4.36;;
15516;SDS011;7860;52.030;5.572;2023-06-24T06:03:09;9.83;;;4.49;;
15516;SDS011;7860;52.030;5.572;2023-06-24T06:04:09;9.49;;;4.53;;